createdAt,value
2022-09-12T00:01:29.161Z,13.20
2022-09-12T00:04:17.256Z,13.20
2022-09-12T00:07:06.556Z,13.10
2022-09-12T00:09:54.690Z,13.10
2022-09-12T00:12:42.728Z,13.00
2022-09-12T00:15:30.765Z,13.00
2022-09-12T00:18:18.812Z,13.00
2022-09-12T00:21:07.136Z,12.80
2022-09-12T00:23:56.741Z,12.80
2022-09-12T00:26:44.729Z,12.80
2022-09-12T00:29:32.793Z,12.70
2022-09-12T00:32:21.016Z,12.60
2022-09-12T00:35:09.300Z,12.60
2022-09-12T00:37:57.289Z,12.60
2022-09-12T00:40:47.364Z,12.60
2022-09-12T00:43:38.951Z,12.50
2022-09-12T00:46:35.997Z,12.50
2022-09-12T00:49:27.713Z,12.50
2022-09-12T00:52:19.080Z,12.40
2022-09-12T00:55:11.019Z,12.40
2022-09-12T00:58:04.568Z,12.30
2022-09-12T01:00:53.147Z,12.30
2022-09-12T01:03:41.677Z,12.30
2022-09-12T01:06:35.328Z,12.30
2022-09-12T01:09:25.696Z,12.30
2022-09-12T01:12:15.799Z,12.30
2022-09-12T01:15:05.734Z,12.20
2022-09-12T01:18:07.682Z,12.20
2022-09-12T01:21:05.702Z,12.20
2022-09-12T01:24:36.428Z,12.00
2022-09-12T01:27:41.220Z,12.10
2022-09-12T01:30:46.276Z,12.00
2022-09-12T01:33:48.648Z,12.00
2022-09-12T01:36:45.998Z,12.00
2022-09-12T01:39:41.469Z,11.90
2022-09-12T01:42:38.556Z,11.90
2022-09-12T01:45:31.496Z,11.90
2022-09-12T01:48:25.025Z,12.00
2022-09-12T01:51:20.124Z,11.90
2022-09-12T01:54:11.881Z,11.80
2022-09-12T01:57:04.971Z,11.80
2022-09-12T01:59:57.687Z,11.80
2022-09-12T02:02:52.926Z,11.90
2022-09-12T02:05:46.768Z,11.80
2022-09-12T02:08:41.352Z,11.90
2022-09-12T02:11:32.928Z,11.80
2022-09-12T02:14:25.526Z,11.80
2022-09-12T02:17:15.752Z,11.80
2022-09-12T02:20:08.080Z,11.70
2022-09-12T02:22:58.756Z,11.70
2022-09-12T02:25:49.334Z,11.60
2022-09-12T02:28:42.319Z,11.70
2022-09-12T02:31:34.703Z,11.60
2022-09-12T02:34:34.082Z,11.60
2022-09-12T02:37:27.139Z,11.50
2022-09-12T02:40:17.166Z,11.50
2022-09-12T02:43:07.222Z,11.50
2022-09-12T02:45:55.297Z,11.60
2022-09-12T02:48:45.199Z,11.60
2022-09-12T02:51:33.471Z,11.60
2022-09-12T02:54:22.657Z,11.70
2022-09-12T02:57:22.615Z,11.50
2022-09-12T03:00:12.320Z,11.50
2022-09-12T03:03:18.384Z,11.40
2022-09-12T03:06:17.439Z,11.30
2022-09-12T03:09:12.714Z,11.30
2022-09-12T03:12:11.755Z,11.30
2022-09-12T03:15:13.498Z,11.20
2022-09-12T03:18:20.978Z,11.20
2022-09-12T03:21:14.350Z,11.20
2022-09-12T03:24:13.531Z,11.10
2022-09-12T03:27:09.605Z,11.10
2022-09-12T03:29:58.309Z,11.10
2022-09-12T03:32:50.222Z,11.20
2022-09-12T03:35:38.379Z,11.00
2022-09-12T03:38:26.399Z,11.00
2022-09-12T03:41:14.479Z,11.00
2022-09-12T03:44:02.883Z,11.00
2022-09-12T03:46:51.096Z,10.90
2022-09-12T03:49:40.417Z,11.00
2022-09-12T03:52:28.439Z,10.90
2022-09-12T03:55:17.493Z,10.80
2022-09-12T03:58:05.463Z,10.80
2022-09-12T04:00:53.489Z,10.80
2022-09-12T04:03:42.261Z,10.80
2022-09-12T04:06:32.043Z,10.90
2022-09-12T04:09:20.046Z,10.80
2022-09-12T04:12:08.309Z,10.70
2022-09-12T04:14:56.328Z,10.60
2022-09-12T04:17:44.332Z,10.70
2022-09-12T04:20:32.432Z,10.70
2022-09-12T04:23:21.904Z,10.70
2022-09-12T04:26:10.640Z,10.70
2022-09-12T04:28:59.000Z,10.60
2022-09-12T04:31:46.986Z,10.50
2022-09-12T04:34:35.003Z,10.60
2022-09-12T04:37:24.167Z,10.60
2022-09-12T04:40:13.533Z,10.60
2022-09-12T04:43:01.804Z,10.60
2022-09-12T04:45:49.857Z,10.60
2022-09-12T04:48:38.582Z,10.50
2022-09-12T04:51:28.751Z,10.60
2022-09-12T04:54:19.538Z,10.60
2022-09-12T04:57:08.879Z,10.60
2022-09-12T04:59:56.882Z,10.70
2022-09-12T05:02:45.274Z,10.80
2022-09-12T05:05:33.300Z,10.60
2022-09-12T05:08:21.306Z,10.60
2022-09-12T05:11:12.740Z,10.70
2022-09-12T05:14:02.084Z,10.80
2022-09-12T05:16:50.224Z,10.80
2022-09-12T05:19:39.121Z,10.80
2022-09-12T05:22:27.102Z,10.90
2022-09-12T05:25:15.355Z,10.90
2022-09-12T05:28:03.828Z,11.00
2022-09-12T05:31:03.218Z,11.00
2022-09-12T05:33:52.922Z,11.00
2022-09-12T05:36:41.159Z,11.00
2022-09-12T05:39:29.202Z,11.10
2022-09-12T05:42:17.223Z,11.20
2022-09-12T05:45:06.058Z,11.40
2022-09-12T05:47:55.563Z,11.40
2022-09-12T05:50:43.780Z,11.50
2022-09-12T05:53:32.378Z,11.60
2022-09-12T05:56:22.789Z,11.70
2022-09-12T05:59:14.406Z,11.70
2022-09-12T06:02:02.491Z,11.80
2022-09-12T06:04:51.994Z,11.90
2022-09-12T06:07:40.086Z,12.00
2022-09-12T06:10:28.779Z,12.00
2022-09-12T06:13:16.944Z,12.10
2022-09-12T06:16:06.365Z,12.20
2022-09-12T06:18:56.327Z,12.20
2022-09-12T06:21:46.165Z,12.30
2022-09-12T06:24:34.333Z,12.40
2022-09-12T06:27:22.399Z,12.40
2022-09-12T06:30:11.665Z,12.50
2022-09-12T06:32:59.675Z,12.60
2022-09-12T06:35:47.725Z,12.60
2022-09-12T06:38:37.307Z,12.60
2022-09-12T06:41:26.176Z,12.70
2022-09-12T06:44:16.560Z,12.70
2022-09-12T06:47:04.650Z,12.80
2022-09-12T06:49:52.722Z,12.90
2022-09-12T06:52:40.788Z,13.00
2022-09-12T06:55:30.214Z,13.00
2022-09-12T06:58:18.261Z,13.00
2022-09-12T07:01:09.455Z,13.30
2022-09-12T07:04:00.004Z,13.20
2022-09-12T07:06:48.154Z,13.30
2022-09-12T07:09:36.204Z,13.50
2022-09-12T07:12:25.523Z,13.50
2022-09-12T07:15:13.524Z,13.60
2022-09-12T07:18:01.543Z,13.50
2022-09-12T07:20:49.582Z,13.70
2022-09-12T07:23:38.085Z,13.70
2022-09-12T07:26:28.224Z,13.80
2022-09-12T07:29:35.786Z,13.90
2022-09-12T07:32:24.912Z,14.00
2022-09-12T07:35:13.397Z,14.00
2022-09-12T07:38:01.444Z,14.10
2022-09-12T07:40:49.735Z,14.20
2022-09-12T07:43:37.768Z,14.30
2022-09-12T07:46:28.603Z,14.40
2022-09-12T07:49:16.759Z,14.50
2022-09-12T07:52:04.814Z,14.50
2022-09-12T07:54:52.830Z,14.50
2022-09-12T07:57:40.836Z,14.60
2022-09-12T08:00:35.748Z,14.80
2022-09-12T08:03:25.076Z,14.80
2022-09-12T08:06:15.356Z,15.10
2022-09-12T08:09:04.362Z,15.10
2022-09-12T08:11:52.947Z,15.20
2022-09-12T08:14:41.068Z,15.30
2022-09-12T08:17:29.495Z,15.40
2022-09-12T08:20:18.867Z,15.50
2022-09-12T08:23:07.725Z,15.60
2022-09-12T08:25:57.526Z,15.60
2022-09-12T08:28:46.621Z,15.80
2022-09-12T08:31:36.576Z,15.80
2022-09-12T08:34:26.108Z,16.00
2022-09-12T08:37:15.604Z,15.90
2022-09-12T08:40:06.662Z,16.00
2022-09-12T08:43:03.808Z,16.10
2022-09-12T08:46:00.373Z,16.10
2022-09-12T08:48:49.462Z,14.70
2022-09-12T08:51:38.079Z,16.20
2022-09-12T08:54:30.442Z,16.30
2022-09-12T08:57:19.054Z,16.40
2022-09-12T09:00:13.622Z,16.50
2022-09-12T09:03:26.848Z,16.60
2022-09-12T09:06:26.786Z,16.60
2022-09-12T09:09:22.783Z,16.70
2022-09-12T09:12:21.895Z,16.40
2022-09-12T09:15:27.991Z,16.50
2022-09-12T09:18:20.998Z,16.50
2022-09-12T09:21:20.146Z,16.60
2022-09-12T09:24:12.989Z,16.70
2022-09-12T09:27:14.295Z,16.80
2022-09-12T09:30:15.350Z,16.90
2022-09-12T09:33:06.055Z,17.10
2022-09-12T09:36:02.086Z,17.10
2022-09-12T09:38:51.743Z,17.20
2022-09-12T09:41:53.378Z,17.30
2022-09-12T09:44:41.884Z,17.50
2022-09-12T09:47:31.420Z,17.30
2022-09-12T09:50:19.765Z,17.40
2022-09-12T09:53:13.415Z,17.50
2022-09-12T09:56:04.624Z,17.50
2022-09-12T09:58:52.722Z,17.50
2022-09-12T10:01:47.197Z,17.70
2022-09-12T10:04:41.658Z,17.70
2022-09-12T10:07:29.934Z,17.80
2022-09-12T10:10:22.759Z,17.80
2022-09-12T10:13:26.072Z,17.90
2022-09-12T10:16:22.945Z,18.00
2022-09-12T10:19:22.530Z,18.40
2022-09-12T10:22:18.861Z,18.70
2022-09-12T10:25:13.444Z,18.70
2022-09-12T10:28:02.807Z,18.80
2022-09-12T10:30:53.413Z,19.00
2022-09-12T10:33:44.879Z,19.10
2022-09-12T10:36:38.600Z,19.10
2022-09-12T10:39:28.363Z,19.10
2022-09-12T10:42:21.533Z,19.10
2022-09-12T10:45:22.105Z,18.90
2022-09-12T10:48:27.994Z,18.80
2022-09-12T10:51:28.430Z,18.80
2022-09-12T10:54:19.406Z,19.00
2022-09-12T10:57:31.942Z,19.30
2022-09-12T11:00:27.675Z,19.70
2022-09-12T11:03:24.723Z,20.00
2022-09-12T11:06:21.599Z,20.10
2022-09-12T11:09:20.192Z,19.90
2022-09-12T11:12:19.253Z,19.70
2022-09-12T11:15:26.102Z,19.80
2022-09-12T11:18:31.502Z,20.00
2022-09-12T11:21:32.542Z,20.20
2022-09-12T11:24:49.563Z,20.40
2022-09-12T11:27:51.226Z,20.50
2022-09-12T11:30:50.485Z,20.60
2022-09-12T11:33:43.576Z,20.50
2022-09-12T11:36:38.613Z,20.40
2022-09-12T11:39:35.179Z,20.50
2022-09-12T11:42:30.835Z,20.50
2022-09-12T11:45:27.792Z,20.60
2022-09-12T11:48:33.179Z,20.40
2022-09-12T11:51:27.650Z,20.30
2022-09-12T11:54:22.747Z,20.40
2022-09-12T11:57:17.887Z,20.50
2022-09-12T12:00:08.294Z,20.70
2022-09-12T12:03:05.684Z,20.80
2022-09-12T12:05:58.647Z,20.80
2022-09-12T12:08:50.589Z,21.10
2022-09-12T12:11:42.747Z,21.30
2022-09-12T12:14:37.120Z,21.50
2022-09-12T12:17:27.035Z,21.60
2022-09-12T12:20:19.390Z,21.60
2022-09-12T12:23:07.524Z,21.60
2022-09-12T12:25:58.246Z,21.70
2022-09-12T12:29:02.292Z,21.80
2022-09-12T12:32:24.623Z,21.50
2022-09-12T12:35:42.124Z,21.60
2022-09-12T12:38:31.267Z,22.00
2022-09-12T12:41:44.954Z,22.50
2022-09-12T12:44:50.080Z,22.90
2022-09-12T12:47:43.717Z,22.90
2022-09-12T12:50:32.376Z,22.70
2022-09-12T12:53:25.236Z,22.70
2022-09-12T12:56:29.238Z,23.00
2022-09-12T12:59:21.463Z,23.10
2022-09-12T13:02:22.707Z,23.30
2022-09-12T13:05:20.793Z,23.30
2022-09-12T13:08:11.384Z,23.50
2022-09-12T13:11:03.637Z,23.70
2022-09-12T13:13:58.298Z,23.80
2022-09-12T13:16:55.599Z,24.00
2022-09-12T13:19:44.828Z,24.60
2022-09-12T13:22:41.700Z,25.10
2022-09-12T13:25:31.618Z,25.50
2022-09-12T13:28:21.074Z,25.50
2022-09-12T13:31:16.493Z,25.70
2022-09-12T13:34:08.130Z,25.10
2022-09-12T13:37:15.447Z,24.80
2022-09-12T13:40:21.400Z,24.70
2022-09-12T13:43:14.867Z,24.70
2022-09-12T13:46:04.371Z,24.90
2022-09-12T13:48:52.530Z,25.00
2022-09-12T13:51:40.672Z,25.40
2022-09-12T13:54:28.895Z,25.30
2022-09-12T13:57:31.796Z,25.30
2022-09-12T14:00:22.223Z,25.30
2022-09-12T14:03:45.934Z,25.00
2022-09-12T14:06:44.615Z,25.00
2022-09-12T14:09:38.547Z,24.70
2022-09-12T14:12:30.996Z,23.90
2022-09-12T14:15:22.396Z,23.80
2022-09-12T14:18:23.499Z,23.70
2022-09-12T14:21:22.854Z,23.60
2022-09-12T14:24:13.952Z,23.60
2022-09-12T14:27:02.035Z,23.70
2022-09-12T14:29:54.293Z,23.70
2022-09-12T14:32:42.395Z,23.50
2022-09-12T14:35:30.634Z,23.30
2022-09-12T14:38:25.685Z,23.20
2022-09-12T14:41:21.754Z,23.00
2022-09-12T14:44:17.172Z,22.90
2022-09-12T14:47:16.011Z,22.90
2022-09-12T14:50:08.201Z,22.70
2022-09-12T14:53:06.883Z,22.70
2022-09-12T14:56:07.219Z,22.60
2022-09-12T14:59:27.142Z,22.40
2022-09-12T15:02:33.472Z,22.20
2022-09-12T15:05:27.385Z,22.20
2022-09-12T15:08:16.536Z,22.10
2022-09-12T15:11:07.873Z,21.90
2022-09-12T15:13:56.194Z,21.80
2022-09-12T15:16:45.493Z,21.80
2022-09-12T15:19:33.543Z,21.80
2022-09-12T15:22:24.376Z,21.80
2022-09-12T15:25:14.748Z,21.90
2022-09-12T15:28:06.682Z,21.90
2022-09-12T15:30:56.696Z,21.90
2022-09-12T15:33:46.381Z,21.90
2022-09-12T15:36:34.475Z,21.90
2022-09-12T15:39:23.226Z,22.00
2022-09-12T15:42:12.572Z,21.90
2022-09-12T15:45:02.604Z,21.80
2022-09-12T15:47:50.969Z,21.80
2022-09-12T15:50:40.264Z,21.70
2022-09-12T15:53:28.988Z,21.50
2022-09-12T15:56:17.994Z,21.50
2022-09-12T15:59:06.015Z,21.30
2022-09-12T16:01:54.210Z,21.10
2022-09-12T16:04:42.577Z,21.20
2022-09-12T16:07:32.018Z,21.10
2022-09-12T16:10:22.651Z,21.00
2022-09-12T16:13:10.665Z,21.00
2022-09-12T16:15:59.201Z,20.90
2022-09-12T16:18:47.365Z,20.80
2022-09-12T16:21:35.452Z,20.80
2022-09-12T16:24:24.714Z,20.70
2022-09-12T16:27:12.936Z,20.60
2022-09-12T16:30:00.979Z,20.60
2022-09-12T16:32:49.032Z,20.50
2022-09-12T16:35:36.996Z,20.40
2022-09-12T16:38:25.618Z,20.30
2022-09-12T16:41:16.308Z,20.20
2022-09-12T16:44:04.510Z,20.10
2022-09-12T16:46:52.526Z,20.00
2022-09-12T16:49:40.526Z,19.80
2022-09-12T16:52:28.740Z,19.80
2022-09-12T16:55:16.870Z,19.70
2022-09-12T16:58:06.177Z,19.60
2022-09-12T17:01:01.406Z,19.50
2022-09-12T17:03:49.462Z,19.40
2022-09-12T17:06:37.613Z,19.40
2022-09-12T17:09:27.363Z,19.20
2022-09-12T17:12:15.701Z,19.10
2022-09-12T17:15:05.658Z,19.10
2022-09-12T17:17:53.611Z,19.00
2022-09-12T17:20:41.622Z,18.90
2022-09-12T17:23:29.817Z,18.70
2022-09-12T17:26:17.892Z,18.60
2022-09-12T17:29:06.070Z,18.50
2022-09-12T17:31:56.144Z,18.40
2022-09-12T17:34:44.118Z,18.20
2022-09-12T17:37:32.072Z,18.10
2022-09-12T17:40:21.771Z,18.00
2022-09-12T17:43:17.100Z,17.80
2022-09-12T17:46:05.757Z,17.70
2022-09-12T17:48:56.347Z,17.60
2022-09-12T17:51:44.992Z,17.50
2022-09-12T17:54:32.957Z,17.30
2022-09-12T17:57:20.912Z,17.20
2022-09-12T18:00:10.338Z,17.10
2022-09-12T18:02:57.869Z,17.00
2022-09-12T18:05:48.034Z,16.90
2022-09-12T18:08:35.990Z,16.70
2022-09-12T18:11:23.945Z,16.60
2022-09-12T18:14:14.223Z,16.50
2022-09-12T18:17:02.565Z,16.40
2022-09-12T18:19:53.818Z,16.30
2022-09-12T18:22:43.338Z,16.20
2022-09-12T18:25:31.332Z,16.10
2022-09-12T18:28:19.750Z,16.10
2022-09-12T18:31:13.150Z,16.00
2022-09-12T18:34:02.431Z,15.90
2022-09-12T18:36:54.138Z,15.80
2022-09-12T18:39:43.622Z,15.80
2022-09-12T18:42:31.583Z,15.60
2022-09-12T18:45:19.547Z,15.60
2022-09-12T18:48:07.495Z,15.50
2022-09-12T18:51:01.814Z,15.50
2022-09-12T18:53:51.984Z,15.40
2022-09-12T18:56:43.762Z,15.30
2022-09-12T18:59:31.767Z,15.30
2022-09-12T19:02:19.775Z,15.20
2022-09-12T19:05:08.139Z,15.20
2022-09-12T19:07:56.120Z,15.10
2022-09-12T19:10:44.139Z,15.10
2022-09-12T19:13:36.149Z,15.00
2022-09-12T19:16:26.744Z,15.00
2022-09-12T19:19:14.853Z,15.00
2022-09-12T19:22:02.837Z,14.90
2022-09-12T19:24:50.802Z,14.80
2022-09-12T19:27:38.864Z,14.70
2022-09-12T19:30:28.203Z,14.70
2022-09-12T19:33:16.189Z,14.70
2022-09-12T19:36:13.731Z,14.70
2022-09-12T19:39:10.611Z,14.60
2022-09-12T19:41:58.596Z,14.50
2022-09-12T19:44:46.652Z,14.50
2022-09-12T19:47:35.957Z,14.50
2022-09-12T19:50:23.933Z,14.40
2022-09-12T19:53:12.054Z,14.40
2022-09-12T19:56:01.446Z,14.40
2022-09-12T19:58:55.820Z,14.30
2022-09-12T20:01:44.621Z,14.30
2022-09-12T20:04:34.061Z,14.20
2022-09-12T20:07:22.062Z,14.20
2022-09-12T20:10:10.422Z,14.20
2022-09-12T20:12:58.425Z,14.20
2022-09-12T20:15:46.562Z,14.10
2022-09-12T20:18:34.638Z,14.10
2022-09-12T20:21:30.957Z,14.00
2022-09-12T20:24:19.076Z,14.00
2022-09-12T20:27:07.146Z,14.00
2022-09-12T20:29:56.507Z,14.00
2022-09-12T20:32:44.736Z,13.90
2022-09-12T20:35:32.855Z,13.90
2022-09-12T20:38:22.227Z,13.80
2022-09-12T20:41:12.179Z,13.90
2022-09-12T20:44:00.570Z,13.80
2022-09-12T20:46:48.635Z,13.80
2022-09-12T20:49:36.663Z,13.80
2022-09-12T20:52:24.727Z,13.70
2022-09-12T20:55:14.208Z,13.70
2022-09-12T20:58:02.270Z,13.70
2022-09-12T21:00:51.234Z,13.70
2022-09-12T21:03:39.666Z,13.70
2022-09-12T21:06:27.990Z,13.70
2022-09-12T21:09:15.990Z,13.60
2022-09-12T21:12:05.800Z,13.50
2022-09-12T21:14:53.932Z,13.60
2022-09-12T21:17:42.033Z,13.60
2022-09-12T21:20:30.778Z,13.50
2022-09-12T21:23:18.760Z,13.50
2022-09-12T21:26:07.548Z,13.40
2022-09-12T21:28:57.413Z,13.40
2022-09-12T21:31:45.526Z,13.40
2022-09-12T21:34:33.596Z,13.40
2022-09-12T21:37:21.854Z,13.40
2022-09-12T21:40:10.654Z,13.50
2022-09-12T21:42:59.055Z,13.30
2022-09-12T21:45:48.473Z,13.30
2022-09-12T21:48:37.342Z,13.40
2022-09-12T21:51:25.648Z,13.30
2022-09-12T21:54:13.935Z,13.20
2022-09-12T21:57:02.211Z,13.30
2022-09-12T21:59:50.236Z,13.20
2022-09-12T22:02:39.606Z,13.10
2022-09-12T22:05:32.614Z,13.20
2022-09-12T22:08:20.623Z,13.20
2022-09-12T22:11:10.210Z,13.10
2022-09-12T22:13:58.432Z,13.10
2022-09-12T22:16:46.464Z,13.00
2022-09-12T22:19:37.290Z,13.00
2022-09-12T22:22:43.042Z,13.00
2022-09-12T22:25:31.227Z,13.00
2022-09-12T22:28:19.684Z,12.90
2022-09-12T22:31:10.263Z,12.90
2022-09-12T22:33:58.949Z,12.90
2022-09-12T22:36:49.948Z,12.90
2022-09-12T22:39:37.998Z,12.90
2022-09-12T22:42:26.073Z,12.80
2022-09-12T22:45:14.327Z,12.80
2022-09-12T22:48:05.044Z,12.80
2022-09-12T22:50:56.826Z,12.70
2022-09-12T22:53:47.130Z,12.70
2022-09-12T22:56:35.357Z,12.70
2022-09-12T22:59:23.390Z,12.70
2022-09-12T23:02:11.437Z,12.60
2022-09-12T23:04:59.498Z,12.60
2022-09-12T23:07:47.500Z,12.60
2022-09-12T23:10:38.183Z,12.60
2022-09-12T23:13:26.184Z,12.60
2022-09-12T23:16:16.837Z,12.60
2022-09-12T23:19:04.916Z,12.50
2022-09-12T23:21:53.022Z,12.60
2022-09-12T23:24:41.004Z,12.70
2022-09-12T23:27:30.327Z,12.50
2022-09-12T23:30:21.651Z,12.60
2022-09-12T23:33:09.730Z,12.60
2022-09-12T23:36:01.745Z,12.80
2022-09-12T23:38:50.128Z,12.60
2022-09-12T23:41:38.601Z,12.70
2022-09-12T23:44:27.989Z,12.60
2022-09-12T23:47:17.956Z,12.60
2022-09-12T23:50:06.717Z,12.60
2022-09-12T23:52:54.816Z,12.60
2022-09-12T23:55:43.394Z,12.60
2022-09-12T23:58:32.042Z,12.60
